Linwood, Kansas
Current Conditions -  °F | °C
As of 6:52 PM on Saturday 25 Oct 2014 (Local Time) from KLWC Reporting Station
Clear Clear  
Wind Chill: 66°   Ceiling: Unl
Heat Index: 66°   Visibility: 10mi
Dew Point: 57°   Wind: 3mph
Humidity: 73%   Direction: 60°ENE
Pressure: 30"   Gusts: NA
Location:  39°N, 95.04°W
Report Text: KLWC 252352Z AUTO 06003KT 10SM CLR 19/14 A3000 RMK AO2 SLP156 T01890139 10272 20189 56005
Loading
Personal Weather Stations






























Interactive Weather Map
Tropical Storm Tracking
New forecast layout! Learn more

10-Day Weather Forecast

Advertisements
Track Severe Weather on mobile